Main page
METAR-TAF:

METAR-TAF

Airports :

Nan Nakhon Airport

Nan, Thailand

latitude: 18-46N, longitude: 100-46E, elevation: 200 m

Current weather observation

The report was made 31 minutes ago, at 05:00 UTC
Wind 7 kt from the Northeast, varying between North/Northwest and East
Temperature 24°C
Humidity 34%
Pressure 1022 hPa
Visibility 10 km or more
no clouds below 1500 m and no cumulonimbus

METAR: VTCN 060500Z 04007KT 340V100 CAVOK 24/07 Q1022 NOSIG

Time: 12:31 (05:31 UTC)

Forecast

The report was made 6 hours and 31 minutes ago, at 23:00 UTC
Forecast valid from 06 at 00 UTC to 06 at 24 UTC
Wind 5 kt from the North/Northeast
Visibility 10 km or more
Few clouds at a height of 2500 ft

TAF: VTCN 052300Z 0600/0624 03005KT 9999 FEW025

Weather observations and forecasts of more than 4000 airports (METAR and TAF reports).

The available stations are represented by yellow and red dots on the map.

Hover mouse over dot to see the name of the station.

Then click to see weather observations and forecasts.

To change the map : click on the green buttons with a black cross to zoom in, on the green button with a dash to zoom out, or on the green arrows for adjacent maps.


METAR-TAF: